sensor_id;sensor_type;location;lat;lon;timestamp;P1;durP1;ratioP1;P2;durP2;ratioP2
22786;SDS011;63134;52.020;4.714;2023-04-24T00:02:08;25.35;;;9.95;;
22786;SDS011;63134;52.020;4.714;2023-04-24T00:04:56;24.17;;;10.38;;
22786;SDS011;63134;52.020;4.714;2023-04-24T00:07:41;20.30;;;9.70;;
22786;SDS011;63134;52.020;4.714;2023-04-24T00:10:30;21.92;;;10.85;;
22786;SDS011;63134;52.020;4.714;2023-04-24T00:13:15;27.55;;;11.45;;
22786;SDS011;63134;52.020;4.714;2023-04-24T00:16:01;36.15;;;12.52;;
22786;SDS011;63134;52.020;4.714;2023-04-24T00:18:46;48.60;;;14.90;;
22786;SDS011;63134;52.020;4.714;2023-04-24T00:21:32;38.10;;;16.42;;
22786;SDS011;63134;52.020;4.714;2023-04-24T00:24:19;45.92;;;17.98;;
22786;SDS011;63134;52.020;4.714;2023-04-24T00:27:06;56.42;;;20.42;;
22786;SDS011;63134;52.020;4.714;2023-04-24T00:29:52;54.60;;;20.42;;
22786;SDS011;63134;52.020;4.714;2023-04-24T00:32:37;69.30;;;25.50;;
22786;SDS011;63134;52.020;4.714;2023-04-24T00:35:23;68.68;;;25.63;;
22786;SDS011;63134;52.020;4.714;2023-04-24T00:38:08;81.78;;;31.20;;
22786;SDS011;63134;52.020;4.714;2023-04-24T00:40:53;75.90;;;29.58;;
22786;SDS011;63134;52.020;4.714;2023-04-24T00:43:49;100.43;;;36.47;;
22786;SDS011;63134;52.020;4.714;2023-04-24T00:46:34;67.83;;;25.57;;
22786;SDS011;63134;52.020;4.714;2023-04-24T00:49:21;41.92;;;19.88;;
22786;SDS011;63134;52.020;4.714;2023-04-24T00:52:10;45.53;;;22.58;;
22786;SDS011;63134;52.020;4.714;2023-04-24T00:54:57;34.63;;;16.92;;
22786;SDS011;63134;52.020;4.714;2023-04-24T00:57:45;43.20;;;19.00;;
22786;SDS011;63134;52.020;4.714;2023-04-24T01:00:32;45.75;;;19.75;;
22786;SDS011;63134;52.020;4.714;2023-04-24T01:03:18;50.08;;;20.67;;
22786;SDS011;63134;52.020;4.714;2023-04-24T01:06:07;44.13;;;20.20;;
22786;SDS011;63134;52.020;4.714;2023-04-24T01:08:55;32.92;;;17.17;;
22786;SDS011;63134;52.020;4.714;2023-04-24T01:11:43;35.78;;;18.65;;
22786;SDS011;63134;52.020;4.714;2023-04-24T01:14:29;52.28;;;20.88;;
22786;SDS011;63134;52.020;4.714;2023-04-24T01:17:16;48.63;;;20.48;;
22786;SDS011;63134;52.020;4.714;2023-04-24T01:20:01;55.05;;;20.50;;
22786;SDS011;63134;52.020;4.714;2023-04-24T01:22:50;44.10;;;18.17;;
22786;SDS011;63134;52.020;4.714;2023-04-24T01:25:37;36.92;;;16.45;;
22786;SDS011;63134;52.020;4.714;2023-04-24T01:28:22;61.42;;;21.10;;
22786;SDS011;63134;52.020;4.714;2023-04-24T01:31:08;63.25;;;21.70;;
22786;SDS011;63134;52.020;4.714;2023-04-24T01:33:54;53.00;;;20.25;;
22786;SDS011;63134;52.020;4.714;2023-04-24T01:36:41;47.58;;;18.45;;
22786;SDS011;63134;52.020;4.714;2023-04-24T01:39:27;47.88;;;17.98;;
22786;SDS011;63134;52.020;4.714;2023-04-24T01:42:13;26.88;;;10.82;;
22786;SDS011;63134;52.020;4.714;2023-04-24T01:44:59;24.35;;;10.38;;
22786;SDS011;63134;52.020;4.714;2023-04-24T01:47:48;28.98;;;12.48;;
22786;SDS011;63134;52.020;4.714;2023-04-24T01:50:34;34.47;;;11.80;;
22786;SDS011;63134;52.020;4.714;2023-04-24T01:53:21;27.70;;;11.43;;
22786;SDS011;63134;52.020;4.714;2023-04-24T01:56:06;29.90;;;12.52;;
22786;SDS011;63134;52.020;4.714;2023-04-24T01:58:52;37.08;;;13.85;;
22786;SDS011;63134;52.020;4.714;2023-04-24T02:01:39;28.15;;;11.45;;
22786;SDS011;63134;52.020;4.714;2023-04-24T02:04:24;28.52;;;12.70;;
22786;SDS011;63134;52.020;4.714;2023-04-24T02:07:10;27.45;;;11.18;;
22786;SDS011;63134;52.020;4.714;2023-04-24T02:09:55;44.38;;;14.70;;
22786;SDS011;63134;52.020;4.714;2023-04-24T02:12:41;26.52;;;10.57;;
22786;SDS011;63134;52.020;4.714;2023-04-24T02:15:27;32.58;;;13.27;;
22786;SDS011;63134;52.020;4.714;2023-04-24T02:18:14;33.00;;;13.13;;
22786;SDS011;63134;52.020;4.714;2023-04-24T02:21:00;30.00;;;13.02;;
22786;SDS011;63134;52.020;4.714;2023-04-24T02:23:46;48.13;;;17.80;;
22786;SDS011;63134;52.020;4.714;2023-04-24T02:26:32;29.98;;;12.88;;
22786;SDS011;63134;52.020;4.714;2023-04-24T02:29:18;47.35;;;16.88;;
22786;SDS011;63134;52.020;4.714;2023-04-24T02:32:07;34.50;;;14.10;;
22786;SDS011;63134;52.020;4.714;2023-04-24T02:34:56;36.58;;;12.82;;
22786;SDS011;63134;52.020;4.714;2023-04-24T02:37:42;36.92;;;14.10;;
22786;SDS011;63134;52.020;4.714;2023-04-24T02:40:29;38.78;;;12.77;;
22786;SDS011;63134;52.020;4.714;2023-04-24T02:43:17;49.42;;;14.73;;
22786;SDS011;63134;52.020;4.714;2023-04-24T02:46:09;36.55;;;12.85;;
22786;SDS011;63134;52.020;4.714;2023-04-24T02:48:54;37.58;;;12.63;;
22786;SDS011;63134;52.020;4.714;2023-04-24T02:51:40;51.70;;;16.40;;
22786;SDS011;63134;52.020;4.714;2023-04-24T02:54:26;39.03;;;12.32;;
22786;SDS011;63134;52.020;4.714;2023-04-24T02:57:11;38.90;;;12.60;;
22786;SDS011;63134;52.020;4.714;2023-04-24T02:59:59;46.55;;;14.13;;
22786;SDS011;63134;52.020;4.714;2023-04-24T03:02:45;41.80;;;13.23;;
22786;SDS011;63134;52.020;4.714;2023-04-24T03:05:31;34.20;;;12.75;;
22786;SDS011;63134;52.020;4.714;2023-04-24T03:08:16;27.45;;;11.32;;
22786;SDS011;63134;52.020;4.714;2023-04-24T03:11:02;27.20;;;10.88;;
22786;SDS011;63134;52.020;4.714;2023-04-24T03:13:48;29.90;;;10.65;;
22786;SDS011;63134;52.020;4.714;2023-04-24T03:16:34;24.08;;;8.55;;
22786;SDS011;63134;52.020;4.714;2023-04-24T03:19:19;22.25;;;5.63;;
22786;SDS011;63134;52.020;4.714;2023-04-24T03:22:17;13.10;;;5.20;;
22786;SDS011;63134;52.020;4.714;2023-04-24T03:25:03;8.13;;;2.80;;
22786;SDS011;63134;52.020;4.714;2023-04-24T03:27:49;8.23;;;2.30;;
22786;SDS011;63134;52.020;4.714;2023-04-24T03:30:50;6.80;;;2.95;;
22786;SDS011;63134;52.020;4.714;2023-04-24T03:33:37;6.75;;;2.33;;
22786;SDS011;63134;52.020;4.714;2023-04-24T03:36:24;18.08;;;3.28;;
22786;SDS011;63134;52.020;4.714;2023-04-24T03:39:12;8.98;;;2.60;;
22786;SDS011;63134;52.020;4.714;2023-04-24T03:42:04;11.52;;;2.65;;
22786;SDS011;63134;52.020;4.714;2023-04-24T03:45:03;7.78;;;2.70;;
22786;SDS011;63134;52.020;4.714;2023-04-24T03:47:52;8.52;;;2.40;;
22786;SDS011;63134;52.020;4.714;2023-04-24T03:50:39;15.05;;;2.92;;
22786;SDS011;63134;52.020;4.714;2023-04-24T03:53:27;9.00;;;2.65;;
22786;SDS011;63134;52.020;4.714;2023-04-24T03:56:13;10.38;;;3.80;;
22786;SDS011;63134;52.020;4.714;2023-04-24T03:59:01;8.48;;;2.95;;
22786;SDS011;63134;52.020;4.714;2023-04-24T04:01:48;7.97;;;3.20;;
22786;SDS011;63134;52.020;4.714;2023-04-24T04:04:41;9.88;;;2.92;;
22786;SDS011;63134;52.020;4.714;2023-04-24T04:07:27;9.60;;;3.92;;
22786;SDS011;63134;52.020;4.714;2023-04-24T04:10:17;11.68;;;4.47;;
22786;SDS011;63134;52.020;4.714;2023-04-24T04:13:06;12.80;;;3.88;;
22786;SDS011;63134;52.020;4.714;2023-04-24T04:15:54;11.52;;;4.20;;
22786;SDS011;63134;52.020;4.714;2023-04-24T04:18:42;11.10;;;4.10;;
22786;SDS011;63134;52.020;4.714;2023-04-24T04:21:28;10.68;;;3.35;;
22786;SDS011;63134;52.020;4.714;2023-04-24T04:24:22;9.60;;;3.28;;
22786;SDS011;63134;52.020;4.714;2023-04-24T04:27:09;13.10;;;3.70;;
22786;SDS011;63134;52.020;4.714;2023-04-24T04:30:11;6.03;;;3.15;;
22786;SDS011;63134;52.020;4.714;2023-04-24T04:33:04;13.73;;;3.65;;
22786;SDS011;63134;52.020;4.714;2023-04-24T04:35:51;10.15;;;4.40;;
22786;SDS011;63134;52.020;4.714;2023-04-24T04:38:37;10.38;;;4.20;;
22786;SDS011;63134;52.020;4.714;2023-04-24T04:41:43;14.82;;;5.15;;
22786;SDS011;63134;52.020;4.714;2023-04-24T04:44:29;14.07;;;3.90;;
22786;SDS011;63134;52.020;4.714;2023-04-24T04:47:17;9.45;;;3.38;;
22786;SDS011;63134;52.020;4.714;2023-04-24T04:50:03;16.88;;;5.38;;
22786;SDS011;63134;52.020;4.714;2023-04-24T04:52:50;17.13;;;6.47;;
22786;SDS011;63134;52.020;4.714;2023-04-24T04:55:42;17.42;;;6.95;;
22786;SDS011;63134;52.020;4.714;2023-04-24T04:58:36;15.35;;;6.57;;
22786;SDS011;63134;52.020;4.714;2023-04-24T05:01:23;19.92;;;8.15;;
22786;SDS011;63134;52.020;4.714;2023-04-24T05:04:10;21.13;;;10.13;;
22786;SDS011;63134;52.020;4.714;2023-04-24T05:06:56;24.20;;;11.15;;
22786;SDS011;63134;52.020;4.714;2023-04-24T05:09:46;29.92;;;12.43;;
22786;SDS011;63134;52.020;4.714;2023-04-24T05:12:31;37.67;;;16.25;;
22786;SDS011;63134;52.020;4.714;2023-04-24T05:15:19;39.10;;;17.80;;
22786;SDS011;63134;52.020;4.714;2023-04-24T05:18:05;49.90;;;19.13;;
22786;SDS011;63134;52.020;4.714;2023-04-24T05:20:51;38.17;;;14.70;;
22786;SDS011;63134;52.020;4.714;2023-04-24T05:23:37;36.20;;;15.00;;
22786;SDS011;63134;52.020;4.714;2023-04-24T05:26:23;44.53;;;17.00;;
22786;SDS011;63134;52.020;4.714;2023-04-24T05:29:08;40.53;;;16.48;;
22786;SDS011;63134;52.020;4.714;2023-04-24T05:31:54;61.67;;;23.48;;
22786;SDS011;63134;52.020;4.714;2023-04-24T05:34:40;61.25;;;24.42;;
22786;SDS011;63134;52.020;4.714;2023-04-24T05:37:26;69.78;;;27.35;;
22786;SDS011;63134;52.020;4.714;2023-04-24T05:40:13;85.70;;;32.85;;
22786;SDS011;63134;52.020;4.714;2023-04-24T05:43:01;89.40;;;34.58;;
22786;SDS011;63134;52.020;4.714;2023-04-24T05:45:47;105.57;;;39.38;;
22786;SDS011;63134;52.020;4.714;2023-04-24T05:48:32;124.85;;;45.25;;
22786;SDS011;63134;52.020;4.714;2023-04-24T05:51:20;116.38;;;43.50;;
22786;SDS011;63134;52.020;4.714;2023-04-24T05:54:07;123.60;;;45.92;;
22786;SDS011;63134;52.020;4.714;2023-04-24T05:56:57;105.63;;;41.63;;
22786;SDS011;63134;52.020;4.714;2023-04-24T05:59:53;124.45;;;41.63;;
22786;SDS011;63134;52.020;4.714;2023-04-24T06:02:40;91.85;;;35.50;;
22786;SDS011;63134;52.020;4.714;2023-04-24T06:05:29;122.47;;;43.22;;
22786;SDS011;63134;52.020;4.714;2023-04-24T06:08:15;85.93;;;35.13;;
22786;SDS011;63134;52.020;4.714;2023-04-24T06:11:02;96.68;;;37.75;;
22786;SDS011;63134;52.020;4.714;2023-04-24T06:13:50;95.22;;;35.10;;
22786;SDS011;63134;52.020;4.714;2023-04-24T06:16:54;84.97;;;31.67;;
22786;SDS011;63134;52.020;4.714;2023-04-24T06:19:53;80.90;;;31.50;;
22786;SDS011;63134;52.020;4.714;2023-04-24T06:22:40;100.75;;;33.55;;
22786;SDS011;63134;52.020;4.714;2023-04-24T06:25:29;101.68;;;34.00;;
22786;SDS011;63134;52.020;4.714;2023-04-24T06:28:15;88.13;;;32.95;;
22786;SDS011;63134;52.020;4.714;2023-04-24T06:31:00;92.45;;;29.33;;
22786;SDS011;63134;52.020;4.714;2023-04-24T06:33:47;84.45;;;26.52;;
22786;SDS011;63134;52.020;4.714;2023-04-24T06:36:36;80.95;;;25.73;;
22786;SDS011;63134;52.020;4.714;2023-04-24T06:39:22;66.85;;;24.05;;
22786;SDS011;63134;52.020;4.714;2023-04-24T06:42:10;64.95;;;20.75;;
22786;SDS011;63134;52.020;4.714;2023-04-24T06:44:55;69.63;;;20.35;;
22786;SDS011;63134;52.020;4.714;2023-04-24T06:47:41;60.78;;;18.38;;
22786;SDS011;63134;52.020;4.714;2023-04-24T06:50:27;52.65;;;17.13;;
22786;SDS011;63134;52.020;4.714;2023-04-24T06:53:12;58.22;;;15.02;;
22786;SDS011;63134;52.020;4.714;2023-04-24T06:55:59;44.75;;;14.38;;
22786;SDS011;63134;52.020;4.714;2023-04-24T06:58:47;48.80;;;14.13;;
22786;SDS011;63134;52.020;4.714;2023-04-24T07:01:32;48.80;;;14.38;;
22786;SDS011;63134;52.020;4.714;2023-04-24T07:04:18;53.75;;;12.38;;
22786;SDS011;63134;52.020;4.714;2023-04-24T07:07:04;59.00;;;12.20;;
22786;SDS011;63134;52.020;4.714;2023-04-24T07:09:51;42.60;;;11.98;;
22786;SDS011;63134;52.020;4.714;2023-04-24T07:12:37;37.65;;;10.40;;
22786;SDS011;63134;52.020;4.714;2023-04-24T07:15:22;50.38;;;10.50;;
22786;SDS011;63134;52.020;4.714;2023-04-24T07:18:08;41.08;;;8.90;;
22786;SDS011;63134;52.020;4.714;2023-04-24T07:20:56;43.72;;;7.45;;
22786;SDS011;63134;52.020;4.714;2023-04-24T07:23:42;39.17;;;8.32;;
22786;SDS011;63134;52.020;4.714;2023-04-24T07:26:28;39.78;;;7.85;;
22786;SDS011;63134;52.020;4.714;2023-04-24T07:29:15;40.42;;;7.22;;
22786;SDS011;63134;52.020;4.714;2023-04-24T07:32:01;34.35;;;7.63;;
22786;SDS011;63134;52.020;4.714;2023-04-24T07:34:48;39.33;;;6.55;;
22786;SDS011;63134;52.020;4.714;2023-04-24T07:37:35;31.23;;;6.57;;
22786;SDS011;63134;52.020;4.714;2023-04-24T07:40:21;36.55;;;6.38;;
22786;SDS011;63134;52.020;4.714;2023-04-24T07:43:09;24.90;;;5.85;;
22786;SDS011;63134;52.020;4.714;2023-04-24T07:45:54;29.10;;;5.90;;
22786;SDS011;63134;52.020;4.714;2023-04-24T07:48:40;41.00;;;6.13;;
22786;SDS011;63134;52.020;4.714;2023-04-24T07:51:25;28.15;;;5.90;;
22786;SDS011;63134;52.020;4.714;2023-04-24T07:54:13;26.17;;;4.78;;
22786;SDS011;63134;52.020;4.714;2023-04-24T07:57:03;31.67;;;4.88;;
22786;SDS011;63134;52.020;4.714;2023-04-24T07:59:51;23.30;;;5.25;;
22786;SDS011;63134;52.020;4.714;2023-04-24T08:02:37;26.08;;;4.30;;
22786;SDS011;63134;52.020;4.714;2023-04-24T08:05:23;35.50;;;5.55;;
22786;SDS011;63134;52.020;4.714;2023-04-24T08:08:10;25.13;;;4.50;;
22786;SDS011;63134;52.020;4.714;2023-04-24T08:10:56;24.30;;;4.97;;
22786;SDS011;63134;52.020;4.714;2023-04-24T08:13:41;26.48;;;5.25;;
22786;SDS011;63134;52.020;4.714;2023-04-24T08:16:32;28.48;;;4.57;;
22786;SDS011;63134;52.020;4.714;2023-04-24T08:19:18;29.08;;;5.30;;
22786;SDS011;63134;52.020;4.714;2023-04-24T08:22:05;26.10;;;4.47;;
22786;SDS011;63134;52.020;4.714;2023-04-24T08:24:51;24.17;;;4.38;;
22786;SDS011;63134;52.020;4.714;2023-04-24T08:27:36;19.27;;;4.47;;
22786;SDS011;63134;52.020;4.714;2023-04-24T08:30:22;27.67;;;5.13;;
22786;SDS011;63134;52.020;4.714;2023-04-24T08:33:10;20.35;;;4.28;;
22786;SDS011;63134;52.020;4.714;2023-04-24T08:35:55;18.42;;;3.90;;
22786;SDS011;63134;52.020;4.714;2023-04-24T08:38:41;17.98;;;4.28;;
22786;SDS011;63134;52.020;4.714;2023-04-24T08:41:27;10.70;;;3.15;;
22786;SDS011;63134;52.020;4.714;2023-04-24T08:44:12;13.85;;;3.30;;
22786;SDS011;63134;52.020;4.714;2023-04-24T08:47:04;12.27;;;3.20;;
22786;SDS011;63134;52.020;4.714;2023-04-24T08:49:52;12.52;;;3.35;;
22786;SDS011;63134;52.020;4.714;2023-04-24T08:52:38;8.88;;;2.67;;
22786;SDS011;63134;52.020;4.714;2023-04-24T08:55:24;8.50;;;2.95;;
22786;SDS011;63134;52.020;4.714;2023-04-24T08:58:15;8.80;;;2.08;;
22786;SDS011;63134;52.020;4.714;2023-04-24T09:01:02;12.90;;;3.15;;
22786;SDS011;63134;52.020;4.714;2023-04-24T09:03:51;11.15;;;3.08;;
22786;SDS011;63134;52.020;4.714;2023-04-24T09:06:39;13.98;;;2.75;;
22786;SDS011;63134;52.020;4.714;2023-04-24T09:09:26;9.82;;;3.03;;
22786;SDS011;63134;52.020;4.714;2023-04-24T09:12:14;11.45;;;2.38;;
22786;SDS011;63134;52.020;4.714;2023-04-24T09:14:59;11.27;;;2.38;;
22786;SDS011;63134;52.020;4.714;2023-04-24T09:17:47;9.25;;;2.40;;
22786;SDS011;63134;52.020;4.714;2023-04-24T09:20:56;9.27;;;2.42;;
22786;SDS011;63134;52.020;4.714;2023-04-24T09:23:43;7.97;;;2.60;;
22786;SDS011;63134;52.020;4.714;2023-04-24T09:26:29;11.27;;;2.53;;
22786;SDS011;63134;52.020;4.714;2023-04-24T09:29:16;10.15;;;2.75;;
22786;SDS011;63134;52.020;4.714;2023-04-24T09:32:17;8.45;;;1.85;;
22786;SDS011;63134;52.020;4.714;2023-04-24T09:35:08;9.27;;;2.40;;
22786;SDS011;63134;52.020;4.714;2023-04-24T09:37:56;6.65;;;1.48;;
22786;SDS011;63134;52.020;4.714;2023-04-24T09:40:43;13.00;;;2.22;;
22786;SDS011;63134;52.020;4.714;2023-04-24T09:43:29;8.95;;;1.65;;
22786;SDS011;63134;52.020;4.714;2023-04-24T09:46:15;8.93;;;2.30;;
22786;SDS011;63134;52.020;4.714;2023-04-24T09:49:10;11.30;;;2.03;;
22786;SDS011;63134;52.020;4.714;2023-04-24T09:52:09;9.57;;;2.28;;
22786;SDS011;63134;52.020;4.714;2023-04-24T09:54:57;8.77;;;1.73;;
22786;SDS011;63134;52.020;4.714;2023-04-24T09:57:49;8.93;;;2.13;;
22786;SDS011;63134;52.020;4.714;2023-04-24T10:00:45;16.77;;;2.42;;
22786;SDS011;63134;52.020;4.714;2023-04-24T10:03:32;8.45;;;1.70;;
22786;SDS011;63134;52.020;4.714;2023-04-24T10:06:18;7.85;;;2.03;;
22786;SDS011;63134;52.020;4.714;2023-04-24T10:09:04;7.65;;;1.80;;
22786;SDS011;63134;52.020;4.714;2023-04-24T10:11:51;5.97;;;1.60;;
22786;SDS011;63134;52.020;4.714;2023-04-24T10:14:38;8.48;;;1.45;;
22786;SDS011;63134;52.020;4.714;2023-04-24T10:17:26;9.43;;;2.63;;
22786;SDS011;63134;52.020;4.714;2023-04-24T10:20:15;14.52;;;1.75;;
22786;SDS011;63134;52.020;4.714;2023-04-24T10:23:01;10.80;;;1.73;;
22786;SDS011;63134;52.020;4.714;2023-04-24T10:25:46;4.63;;;1.40;;
22786;SDS011;63134;52.020;4.714;2023-04-24T10:28:34;6.45;;;1.52;;
22786;SDS011;63134;52.020;4.714;2023-04-24T10:31:31;7.18;;;1.45;;
22786;SDS011;63134;52.020;4.714;2023-04-24T10:34:23;4.95;;;1.30;;
22786;SDS011;63134;52.020;4.714;2023-04-24T10:37:10;8.73;;;1.48;;
22786;SDS011;63134;52.020;4.714;2023-04-24T10:40:00;8.40;;;1.40;;
22786;SDS011;63134;52.020;4.714;2023-04-24T10:42:49;6.93;;;1.27;;
22786;SDS011;63134;52.020;4.714;2023-04-24T10:46:05;7.35;;;1.45;;
22786;SDS011;63134;52.020;4.714;2023-04-24T10:48:52;8.93;;;1.92;;
22786;SDS011;63134;52.020;4.714;2023-04-24T10:57:26;11.15;;;2.53;;
22786;SDS011;63134;52.020;4.714;2023-04-24T11:03:25;12.63;;;2.40;;
22786;SDS011;63134;52.020;4.714;2023-04-24T11:06:16;10.50;;;1.83;;
22786;SDS011;63134;52.020;4.714;2023-04-24T11:09:26;12.95;;;2.40;;
22786;SDS011;63134;52.020;4.714;2023-04-24T11:12:13;8.55;;;1.88;;
22786;SDS011;63134;52.020;4.714;2023-04-24T11:15:00;13.82;;;2.63;;
22786;SDS011;63134;52.020;4.714;2023-04-24T11:17:48;14.27;;;2.75;;
22786;SDS011;63134;52.020;4.714;2023-04-24T11:20:34;8.15;;;2.08;;
22786;SDS011;63134;52.020;4.714;2023-04-24T11:23:22;11.80;;;2.60;;
22786;SDS011;63134;52.020;4.714;2023-04-24T11:26:17;9.10;;;1.85;;
22786;SDS011;63134;52.020;4.714;2023-04-24T11:29:08;7.47;;;2.00;;
22786;SDS011;63134;52.020;4.714;2023-04-24T11:31:53;10.60;;;1.83;;
22786;SDS011;63134;52.020;4.714;2023-04-24T11:34:41;9.43;;;2.28;;
22786;SDS011;63134;52.020;4.714;2023-04-24T11:37:39;9.00;;;1.98;;
22786;SDS011;63134;52.020;4.714;2023-04-24T11:40:25;8.10;;;2.05;;
22786;SDS011;63134;52.020;4.714;2023-04-24T11:43:11;10.88;;;1.88;;
22786;SDS011;63134;52.020;4.714;2023-04-24T11:45:59;7.53;;;1.92;;
22786;SDS011;63134;52.020;4.714;2023-04-24T11:48:45;6.63;;;2.00;;
22786;SDS011;63134;52.020;4.714;2023-04-24T11:51:30;11.38;;;2.28;;
22786;SDS011;63134;52.020;4.714;2023-04-24T11:54:32;6.43;;;2.28;;
22786;SDS011;63134;52.020;4.714;2023-04-24T11:57:21;9.82;;;2.83;;
22786;SDS011;63134;52.020;4.714;2023-04-24T12:00:20;12.38;;;2.40;;
22786;SDS011;63134;52.020;4.714;2023-04-24T12:03:16;10.55;;;2.50;;
22786;SDS011;63134;52.020;4.714;2023-04-24T12:06:05;12.02;;;2.78;;
22786;SDS011;63134;52.020;4.714;2023-04-24T12:08:54;14.65;;;2.50;;
22786;SDS011;63134;52.020;4.714;2023-04-24T12:11:55;11.90;;;2.28;;
22786;SDS011;63134;52.020;4.714;2023-04-24T12:14:52;14.35;;;2.78;;
22786;SDS011;63134;52.020;4.714;2023-04-24T12:17:41;13.15;;;3.20;;
22786;SDS011;63134;52.020;4.714;2023-04-24T12:20:28;13.23;;;2.90;;
22786;SDS011;63134;52.020;4.714;2023-04-24T12:23:15;18.45;;;2.90;;
22786;SDS011;63134;52.020;4.714;2023-04-24T12:26:03;16.23;;;3.38;;
22786;SDS011;63134;52.020;4.714;2023-04-24T12:28:49;13.35;;;2.90;;
22786;SDS011;63134;52.020;4.714;2023-04-24T12:31:37;12.15;;;2.92;;
22786;SDS011;63134;52.020;4.714;2023-04-24T12:34:23;14.55;;;3.42;;
22786;SDS011;63134;52.020;4.714;2023-04-24T12:37:11;19.83;;;4.35;;
22786;SDS011;63134;52.020;4.714;2023-04-24T12:40:05;15.85;;;3.17;;
22786;SDS011;63134;52.020;4.714;2023-04-24T12:42:52;11.07;;;3.28;;
22786;SDS011;63134;52.020;4.714;2023-04-24T12:45:40;18.67;;;3.65;;
22786;SDS011;63134;52.020;4.714;2023-04-24T12:48:28;15.20;;;3.42;;
22786;SDS011;63134;52.020;4.714;2023-04-24T12:51:14;14.40;;;3.42;;
22786;SDS011;63134;52.020;4.714;2023-04-24T12:54:00;17.48;;;4.20;;
22786;SDS011;63134;52.020;4.714;2023-04-24T12:56:46;18.10;;;3.85;;
22786;SDS011;63134;52.020;4.714;2023-04-24T12:59:31;16.08;;;3.78;;
22786;SDS011;63134;52.020;4.714;2023-04-24T13:02:16;12.90;;;3.45;;
22786;SDS011;63134;52.020;4.714;2023-04-24T13:05:02;9.23;;;3.05;;
22786;SDS011;63134;52.020;4.714;2023-04-24T13:07:48;10.77;;;2.90;;
22786;SDS011;63134;52.020;4.714;2023-04-24T13:10:34;14.02;;;3.60;;
22786;SDS011;63134;52.020;4.714;2023-04-24T13:13:20;17.42;;;3.95;;
22786;SDS011;63134;52.020;4.714;2023-04-24T13:16:05;13.38;;;3.63;;
22786;SDS011;63134;52.020;4.714;2023-04-24T13:18:51;14.50;;;3.15;;
22786;SDS011;63134;52.020;4.714;2023-04-24T13:21:36;13.18;;;3.20;;
22786;SDS011;63134;52.020;4.714;2023-04-24T13:24:22;15.45;;;3.58;;
22786;SDS011;63134;52.020;4.714;2023-04-24T13:27:11;16.75;;;3.47;;
22786;SDS011;63134;52.020;4.714;2023-04-24T13:29:57;19.10;;;4.22;;
22786;SDS011;63134;52.020;4.714;2023-04-24T13:32:43;15.20;;;3.30;;
22786;SDS011;63134;52.020;4.714;2023-04-24T13:35:30;14.85;;;3.08;;
22786;SDS011;63134;52.020;4.714;2023-04-24T13:38:17;9.38;;;3.10;;
22786;SDS011;63134;52.020;4.714;2023-04-24T13:41:03;14.05;;;3.58;;
22786;SDS011;63134;52.020;4.714;2023-04-24T13:43:48;16.60;;;3.28;;
22786;SDS011;63134;52.020;4.714;2023-04-24T13:46:34;12.50;;;2.90;;
22786;SDS011;63134;52.020;4.714;2023-04-24T13:49:20;8.52;;;2.75;;
22786;SDS011;63134;52.020;4.714;2023-04-24T13:52:07;16.30;;;3.70;;
22786;SDS011;63134;52.020;4.714;2023-04-24T13:54:52;13.68;;;2.80;;
22786;SDS011;63134;52.020;4.714;2023-04-24T13:57:41;9.38;;;3.15;;
22786;SDS011;63134;52.020;4.714;2023-04-24T14:00:27;12.25;;;2.78;;
22786;SDS011;63134;52.020;4.714;2023-04-24T14:03:12;14.50;;;3.03;;
22786;SDS011;63134;52.020;4.714;2023-04-24T14:05:58;13.45;;;3.20;;
22786;SDS011;63134;52.020;4.714;2023-04-24T14:08:44;15.10;;;3.60;;
22786;SDS011;63134;52.020;4.714;2023-04-24T14:11:31;8.77;;;3.20;;
22786;SDS011;63134;52.020;4.714;2023-04-24T14:14:17;10.35;;;3.03;;
22786;SDS011;63134;52.020;4.714;2023-04-24T14:17:05;11.10;;;3.70;;
22786;SDS011;63134;52.020;4.714;2023-04-24T14:19:51;17.75;;;3.95;;
22786;SDS011;63134;52.020;4.714;2023-04-24T14:22:37;16.05;;;3.92;;
22786;SDS011;63134;52.020;4.714;2023-04-24T14:25:23;17.90;;;3.83;;
22786;SDS011;63134;52.020;4.714;2023-04-24T14:28:08;23.60;;;5.13;;
22786;SDS011;63134;52.020;4.714;2023-04-24T14:30:54;15.95;;;4.88;;
22786;SDS011;63134;52.020;4.714;2023-04-24T14:33:39;15.73;;;4.70;;
22786;SDS011;63134;52.020;4.714;2023-04-24T14:36:25;21.58;;;5.15;;
22786;SDS011;63134;52.020;4.714;2023-04-24T14:39:11;23.40;;;5.10;;
22786;SDS011;63134;52.020;4.714;2023-04-24T14:41:57;19.70;;;4.82;;
22786;SDS011;63134;52.020;4.714;2023-04-24T14:44:42;13.45;;;4.22;;
22786;SDS011;63134;52.020;4.714;2023-04-24T14:47:28;21.05;;;4.65;;
22786;SDS011;63134;52.020;4.714;2023-04-24T14:50:18;22.35;;;4.80;;
22786;SDS011;63134;52.020;4.714;2023-04-24T14:53:08;17.65;;;4.70;;
22786;SDS011;63134;52.020;4.714;2023-04-24T14:55:54;18.58;;;5.53;;
22786;SDS011;63134;52.020;4.714;2023-04-24T14:58:40;20.50;;;5.65;;
22786;SDS011;63134;52.020;4.714;2023-04-24T15:01:25;17.17;;;5.07;;
22786;SDS011;63134;52.020;4.714;2023-04-24T15:04:11;21.30;;;4.43;;
22786;SDS011;63134;52.020;4.714;2023-04-24T15:06:57;29.38;;;5.65;;
22786;SDS011;63134;52.020;4.714;2023-04-24T15:09:43;20.10;;;4.80;;
22786;SDS011;63134;52.020;4.714;2023-04-24T15:12:30;22.58;;;4.95;;
22786;SDS011;63134;52.020;4.714;2023-04-24T15:15:16;20.52;;;3.85;;
22786;SDS011;63134;52.020;4.714;2023-04-24T15:18:03;13.52;;;3.88;;
22786;SDS011;63134;52.020;4.714;2023-04-24T15:20:49;16.95;;;4.25;;
22786;SDS011;63134;52.020;4.714;2023-04-24T15:23:35;17.75;;;3.83;;
22786;SDS011;63134;52.020;4.714;2023-04-24T15:26:20;16.38;;;3.92;;
22786;SDS011;63134;52.020;4.714;2023-04-24T15:29:07;15.70;;;3.90;;
22786;SDS011;63134;52.020;4.714;2023-04-24T15:31:52;15.07;;;5.03;;
22786;SDS011;63134;52.020;4.714;2023-04-24T15:34:38;27.95;;;5.30;;
22786;SDS011;63134;52.020;4.714;2023-04-24T15:37:23;22.25;;;5.07;;
22786;SDS011;63134;52.020;4.714;2023-04-24T15:40:09;13.77;;;4.07;;
22786;SDS011;63134;52.020;4.714;2023-04-24T15:42:58;16.58;;;4.47;;
22786;SDS011;63134;52.020;4.714;2023-04-24T15:45:43;16.98;;;4.15;;
22786;SDS011;63134;52.020;4.714;2023-04-24T15:48:30;14.02;;;3.97;;
22786;SDS011;63134;52.020;4.714;2023-04-24T15:51:19;19.17;;;4.68;;
22786;SDS011;63134;52.020;4.714;2023-04-24T15:54:05;18.50;;;4.25;;
22786;SDS011;63134;52.020;4.714;2023-04-24T15:56:50;22.70;;;4.82;;
22786;SDS011;63134;52.020;4.714;2023-04-24T15:59:35;10.68;;;4.03;;
22786;SDS011;63134;52.020;4.714;2023-04-24T16:02:21;12.57;;;4.63;;
22786;SDS011;63134;52.020;4.714;2023-04-24T16:05:08;12.63;;;3.65;;
22786;SDS011;63134;52.020;4.714;2023-04-24T16:07:53;18.15;;;4.38;;
22786;SDS011;63134;52.020;4.714;2023-04-24T16:10:39;17.08;;;4.00;;
22786;SDS011;63134;52.020;4.714;2023-04-24T16:13:25;19.25;;;4.50;;
22786;SDS011;63134;52.020;4.714;2023-04-24T16:16:12;19.17;;;3.85;;
22786;SDS011;63134;52.020;4.714;2023-04-24T16:18:58;16.25;;;3.38;;
22786;SDS011;63134;52.020;4.714;2023-04-24T16:21:44;14.75;;;3.50;;
22786;SDS011;63134;52.020;4.714;2023-04-24T16:24:29;10.65;;;3.70;;
22786;SDS011;63134;52.020;4.714;2023-04-24T16:27:19;13.07;;;3.97;;
22786;SDS011;63134;52.020;4.714;2023-04-24T16:30:07;19.55;;;3.80;;
22786;SDS011;63134;52.020;4.714;2023-04-24T16:32:53;13.05;;;3.75;;
22786;SDS011;63134;52.020;4.714;2023-04-24T16:35:39;15.73;;;4.22;;
22786;SDS011;63134;52.020;4.714;2023-04-24T16:38:24;15.55;;;3.67;;
22786;SDS011;63134;52.020;4.714;2023-04-24T16:41:10;19.60;;;4.47;;
22786;SDS011;63134;52.020;4.714;2023-04-24T16:43:56;23.67;;;5.20;;